createdAt,value
2018-09-08T00:02:19.988Z,2.05
2018-09-08T00:04:48.985Z,1.90
2018-09-08T00:07:23.254Z,1.70
2018-09-08T00:09:52.188Z,1.53
2018-09-08T00:12:21.061Z,1.53
2018-09-08T00:14:49.162Z,1.63
2018-09-08T00:17:23.358Z,1.40
2018-09-08T00:19:57.708Z,1.80
2018-09-08T00:22:32.096Z,1.70
2018-09-08T00:25:06.426Z,1.40
2018-09-08T00:27:40.633Z,1.50
2018-09-08T00:30:09.701Z,1.67
2018-09-08T00:32:39.733Z,1.20
2018-09-08T00:35:08.595Z,1.50
2018-09-08T00:37:37.437Z,1.53
2018-09-08T00:40:06.313Z,2.10
2018-09-08T00:42:35.192Z,1.60
2018-09-08T00:45:05.115Z,1.50
2018-09-08T00:47:33.986Z,1.23
2018-09-08T00:50:03.064Z,1.27
2018-09-08T00:52:31.911Z,1.40
2018-09-08T00:55:00.997Z,1.30
2018-09-08T00:57:29.853Z,1.70
2018-09-08T00:59:58.720Z,1.23
2018-09-08T01:02:27.658Z,1.07
2018-09-08T01:04:57.014Z,1.50
2018-09-08T01:07:30.518Z,1.70
2018-09-08T01:10:00.315Z,1.70
2018-09-08T01:12:30.149Z,1.57
2018-09-08T01:14:59.413Z,1.73
2018-09-08T01:17:28.283Z,1.47
2018-09-08T01:19:57.850Z,1.60
2018-09-08T01:22:27.308Z,1.30
2018-09-08T01:24:56.221Z,1.70
2018-09-08T01:27:27.001Z,1.50
2018-09-08T01:29:55.765Z,1.50
2018-09-08T01:32:24.695Z,1.67
2018-09-08T01:34:53.533Z,1.67
2018-09-08T01:37:22.371Z,1.20
2018-09-08T01:39:51.392Z,1.90
2018-09-08T01:42:20.209Z,1.40
2018-09-08T01:44:49.132Z,1.63
2018-09-08T01:47:17.968Z,1.53
2018-09-08T01:49:46.933Z,1.90
2018-09-08T01:52:16.227Z,2.67
2018-09-08T01:54:46.476Z,1.20
2018-09-08T01:57:15.444Z,1.90
2018-09-08T01:59:44.352Z,1.90
2018-09-08T02:02:15.238Z,1.70
2018-09-08T02:04:44.506Z,1.77
2018-09-08T02:07:13.253Z,1.73
2018-09-08T02:09:42.075Z,1.93
2018-09-08T02:12:10.911Z,2.17
2018-09-08T02:14:40.188Z,1.93
2018-09-08T02:17:09.088Z,1.63
2018-09-08T02:19:38.383Z,1.50
2018-09-08T02:22:06.899Z,1.43
2018-09-08T02:24:35.454Z,1.80
2018-09-08T02:27:04.191Z,1.80
2018-09-08T02:29:32.703Z,1.40
2018-09-08T02:32:01.245Z,1.37
2018-09-08T02:34:29.755Z,1.50
2018-09-08T02:36:58.271Z,2.03
2018-09-08T02:39:26.778Z,1.57
2018-09-08T02:41:55.286Z,1.93
2018-09-08T02:44:23.951Z,1.60
2018-09-08T02:46:52.593Z,2.30
2018-09-08T02:49:21.076Z,1.73
2018-09-08T02:51:49.118Z,1.83
2018-09-08T02:54:17.131Z,1.43
2018-09-08T02:56:45.160Z,1.77
2018-09-08T02:59:13.172Z,1.87
2018-09-08T03:01:41.202Z,1.90
2018-09-08T03:04:09.206Z,1.60
2018-09-08T03:06:37.246Z,1.73
2018-09-08T03:09:05.284Z,1.60
2018-09-08T03:11:33.422Z,1.70
2018-09-08T03:14:01.561Z,2.10
2018-09-08T03:16:29.608Z,2.53
2018-09-08T03:18:57.630Z,1.80
2018-09-08T03:21:25.681Z,2.10
2018-09-08T03:23:54.711Z,2.13
2018-09-08T03:26:22.765Z,2.07
2018-09-08T03:28:50.881Z,2.93
2018-09-08T03:31:18.921Z,1.60
2018-09-08T03:33:46.953Z,2.03
2018-09-08T03:36:14.985Z,2.43
2018-09-08T03:38:43.113Z,2.43
2018-09-08T03:41:11.177Z,1.97
2018-09-08T03:43:39.178Z,1.70
2018-09-08T03:46:07.204Z,2.40
2018-09-08T03:48:35.220Z,2.40
2018-09-08T03:51:03.653Z,2.83
2018-09-08T03:53:31.691Z,2.70
2018-09-08T03:55:59.832Z,2.30
2018-09-08T03:58:27.878Z,2.40
2018-09-08T04:00:56.076Z,1.90
2018-09-08T04:03:24.617Z,2.30
2018-09-08T04:05:53.507Z,1.80
2018-09-08T04:08:22.037Z,2.10
2018-09-08T04:10:50.688Z,1.90
2018-09-08T04:13:19.375Z,1.63
2018-09-08T04:15:47.846Z,3.00
2018-09-08T04:18:16.640Z,1.77
2018-09-08T04:20:45.441Z,2.60
2018-09-08T04:23:14.314Z,1.90
2018-09-08T04:25:43.140Z,1.83
2018-09-08T04:28:11.983Z,2.30
2018-09-08T04:30:40.923Z,2.27
2018-09-08T04:33:09.859Z,1.90
2018-09-08T04:35:38.765Z,1.97
2018-09-08T04:38:07.590Z,2.60
2018-09-08T04:40:36.504Z,2.57
2018-09-08T04:43:06.414Z,2.33
2018-09-08T04:45:35.311Z,1.97
2018-09-08T04:48:04.455Z,1.90
2018-09-08T04:50:33.251Z,2.00
2018-09-08T04:53:02.252Z,2.10
2018-09-08T04:55:31.245Z,1.83
2018-09-08T04:58:00.069Z,2.00
2018-09-08T05:00:29.098Z,2.80
2018-09-08T05:03:00.643Z,2.20
2018-09-08T05:05:29.592Z,2.20
2018-09-08T05:07:58.971Z,1.70
2018-09-08T05:10:27.801Z,2.50
2018-09-08T05:12:58.486Z,1.93
2018-09-08T05:15:30.840Z,1.80
2018-09-08T05:18:00.163Z,2.20
2018-09-08T05:20:29.746Z,2.67
2018-09-08T05:22:59.342Z,2.13
2018-09-08T05:25:28.635Z,2.10
2018-09-08T05:27:57.533Z,3.33
2018-09-08T05:30:26.534Z,2.70
2018-09-08T05:32:55.420Z,2.17
2018-09-08T05:35:24.266Z,2.27
2018-09-08T05:37:53.114Z,2.40
2018-09-08T05:40:21.997Z,2.40
2018-09-08T05:42:50.861Z,3.43
2018-09-08T05:45:19.697Z,3.10
2018-09-08T05:47:49.069Z,3.40
2018-09-08T05:50:17.657Z,2.30
2018-09-08T05:52:46.170Z,2.10
2018-09-08T05:55:14.763Z,2.10
2018-09-08T05:57:43.796Z,2.53
2018-09-08T06:00:12.776Z,2.70
2018-09-08T06:02:41.658Z,2.27
2018-09-08T06:05:10.677Z,2.23
2018-09-08T06:07:39.528Z,2.20
2018-09-08T06:10:08.507Z,2.17
2018-09-08T06:12:37.397Z,2.77
2018-09-08T06:15:06.311Z,3.07
2018-09-08T06:17:35.237Z,2.10
2018-09-08T06:20:04.800Z,3.60
2018-09-08T06:22:33.845Z,2.63
2018-09-08T06:25:02.943Z,2.30
2018-09-08T06:27:33.300Z,2.60
2018-09-08T06:30:02.117Z,2.47
2018-09-08T06:32:31.189Z,2.40
2018-09-08T06:35:00.642Z,2.40
2018-09-08T06:37:30.387Z,2.43
2018-09-08T06:39:59.316Z,2.77
2018-09-08T06:42:28.380Z,2.43
2018-09-08T06:44:57.370Z,3.53
2018-09-08T06:47:26.148Z,2.70
2018-09-08T06:49:55.967Z,2.33
2018-09-08T06:52:25.415Z,2.77
2018-09-08T06:54:54.367Z,3.30
2018-09-08T06:57:23.289Z,2.50
2018-09-08T06:59:52.168Z,2.77
2018-09-08T07:02:21.986Z,2.97
2018-09-08T07:04:50.893Z,2.93
2018-09-08T07:07:21.155Z,2.73
2018-09-08T07:09:50.098Z,2.80
2018-09-08T07:12:19.012Z,3.37
2018-09-08T07:14:48.006Z,3.13
2018-09-08T07:17:17.005Z,3.27
2018-09-08T07:19:45.944Z,2.57
2018-09-08T07:22:17.115Z,2.53
2018-09-08T07:24:46.327Z,2.97
2018-09-08T07:27:15.473Z,3.10
2018-09-08T07:29:44.413Z,3.40
2018-09-08T07:32:14.275Z,6.00
2018-09-08T07:34:43.014Z,3.70
2018-09-08T07:37:12.003Z,4.23
2018-09-08T07:39:41.260Z,3.07
2018-09-08T07:42:10.258Z,2.90
2018-09-08T07:44:39.173Z,3.30
2018-09-08T07:47:07.959Z,3.63
2018-09-08T07:49:36.502Z,2.93
2018-09-08T07:52:05.887Z,2.90
2018-09-08T07:54:34.506Z,2.87
2018-09-08T07:57:03.822Z,4.37
2018-09-08T07:59:32.607Z,3.30
2018-09-08T08:02:01.477Z,4.20
2018-09-08T08:04:30.346Z,3.50
2018-09-08T08:06:59.203Z,3.60
2018-09-08T08:09:28.146Z,3.33
2018-09-08T08:11:56.977Z,2.90
2018-09-08T08:14:25.932Z,2.77
2018-09-08T08:16:54.811Z,2.75
2018-09-08T08:19:23.848Z,3.10
2018-09-08T08:21:52.750Z,3.27
2018-09-08T08:24:21.666Z,2.50
2018-09-08T08:26:50.642Z,3.03
2018-09-08T08:29:19.533Z,3.40
2018-09-08T08:31:48.557Z,2.80
2018-09-08T08:34:17.476Z,3.73
2018-09-08T08:36:47.125Z,4.20
2018-09-08T08:39:16.874Z,3.23
2018-09-08T08:41:46.210Z,3.80
2018-09-08T08:44:15.249Z,3.83
2018-09-08T08:46:44.248Z,3.40
2018-09-08T08:49:13.127Z,3.07
2018-09-08T08:51:53.286Z,3.33
2018-09-08T08:54:28.615Z,2.80
2018-09-08T08:56:58.499Z,3.03
2018-09-08T08:59:27.975Z,2.70
2018-09-08T09:01:56.881Z,3.23
2018-09-08T09:04:26.106Z,2.50
2018-09-08T09:06:55.406Z,3.10
2018-09-08T09:09:24.339Z,3.03
2018-09-08T09:11:53.864Z,2.53
2018-09-08T09:14:22.460Z,2.73
2018-09-08T09:16:51.673Z,2.60
2018-09-08T09:19:37.990Z,2.83
2018-09-08T09:22:20.014Z,2.57
2018-09-08T09:25:05.872Z,2.43
2018-09-08T09:27:36.418Z,2.30
2018-09-08T09:30:06.339Z,2.50
2018-09-08T09:32:35.387Z,2.97
2018-09-08T09:35:04.609Z,2.20
2018-09-08T09:37:36.158Z,2.30
2018-09-08T09:40:08.318Z,2.57
2018-09-08T09:42:37.453Z,3.60
2018-09-08T09:45:08.791Z,2.10
2018-09-08T09:47:38.081Z,2.37
2018-09-08T09:50:08.870Z,2.27
2018-09-08T09:52:37.871Z,2.40
2018-09-08T09:55:07.129Z,2.60
2018-09-08T09:57:36.531Z,2.27
2018-09-08T10:00:07.070Z,1.87
2018-09-08T10:02:41.565Z,2.13
2018-09-08T10:05:15.975Z,2.10
2018-09-08T10:07:47.092Z,1.90
2018-09-08T10:10:17.275Z,2.40
2018-09-08T10:12:47.061Z,2.00
2018-09-08T10:15:16.842Z,2.10
2018-09-08T10:17:46.129Z,1.80
2018-09-08T10:20:16.352Z,1.83
2018-09-08T10:22:45.367Z,1.90
2018-09-08T10:25:15.601Z,1.50
2018-09-08T10:27:45.244Z,1.90
2018-09-08T10:30:14.697Z,1.83
2018-09-08T10:32:44.404Z,1.47
2018-09-08T10:35:13.758Z,1.37
2018-09-08T10:37:42.709Z,1.40
2018-09-08T10:40:12.580Z,1.32
2018-09-08T10:42:42.580Z,1.50
2018-09-08T10:45:11.926Z,1.70
2018-09-08T10:47:40.772Z,2.03
2018-09-08T10:50:10.376Z,1.47
2018-09-08T10:52:41.035Z,1.43
2018-09-08T10:55:10.629Z,1.50
2018-09-08T10:57:39.329Z,1.83
2018-09-08T11:00:08.313Z,2.50
2018-09-08T11:02:37.323Z,2.00
2018-09-08T11:05:06.104Z,1.90
2018-09-08T11:07:35.070Z,1.83
2018-09-08T11:10:04.168Z,1.57
2018-09-08T11:12:33.196Z,1.63
2018-09-08T11:15:02.114Z,1.77
2018-09-08T11:17:31.033Z,1.83
2018-09-08T11:19:59.792Z,2.07
2018-09-08T11:22:30.111Z,1.40
2018-09-08T11:24:59.338Z,1.63
2018-09-08T11:27:28.019Z,1.77
2018-09-08T11:29:57.573Z,1.77
2018-09-08T11:32:26.201Z,1.80
2018-09-08T11:34:54.748Z,2.27
2018-09-08T11:37:24.741Z,2.67
2018-09-08T11:39:53.306Z,2.13
2018-09-08T11:42:21.982Z,2.10
2018-09-08T11:44:50.564Z,1.80
2018-09-08T11:47:18.981Z,1.67
2018-09-08T11:49:47.532Z,1.87
2018-09-08T11:52:16.033Z,2.17
2018-09-08T11:54:44.576Z,1.80
2018-09-08T11:57:13.285Z,1.60
2018-09-08T11:59:41.953Z,2.20
2018-09-08T12:02:10.530Z,2.30
2018-09-08T12:04:39.159Z,2.53
2018-09-08T12:07:08.309Z,2.47
2018-09-08T12:09:36.911Z,2.70
2018-09-08T12:12:05.440Z,2.00
2018-09-08T12:14:33.961Z,2.80
2018-09-08T12:17:02.465Z,2.12
2018-09-08T12:19:30.991Z,2.23
2018-09-08T12:21:59.601Z,2.03
2018-09-08T12:24:28.271Z,2.67
2018-09-08T12:26:56.837Z,1.73
2018-09-08T12:29:25.400Z,2.20
2018-09-08T12:31:53.896Z,2.13
2018-09-08T12:34:22.412Z,2.30
2018-09-08T12:36:50.937Z,2.07
2018-09-08T12:39:19.564Z,2.30
2018-09-08T12:41:48.126Z,2.53
2018-09-08T12:44:16.834Z,2.17
2018-09-08T12:46:46.383Z,2.47
2018-09-08T12:49:14.927Z,2.10
2018-09-08T12:51:43.576Z,2.27
2018-09-08T12:54:12.159Z,2.80
2018-09-08T12:56:40.693Z,2.17
2018-09-08T12:59:09.257Z,2.23
2018-09-08T13:01:37.718Z,2.00
2018-09-08T13:04:06.482Z,2.00
2018-09-08T13:06:35.568Z,1.90
2018-09-08T13:09:04.834Z,2.20
2018-09-08T13:11:33.491Z,1.90
2018-09-08T13:14:02.240Z,2.00
2018-09-08T13:16:31.429Z,2.10
2018-09-08T13:19:00.012Z,1.93
2018-09-08T13:21:28.604Z,1.90
2018-09-08T13:23:57.087Z,1.90
2018-09-08T13:26:25.583Z,1.60
2018-09-08T13:28:54.108Z,2.10
2018-09-08T13:31:22.660Z,1.73
2018-09-08T13:33:51.239Z,1.77
2018-09-08T13:36:19.724Z,1.90
2018-09-08T13:38:48.268Z,2.10
2018-09-08T13:41:16.895Z,1.70
2018-09-08T13:43:45.505Z,1.80
2018-09-08T13:46:14.065Z,1.93
2018-09-08T13:48:43.665Z,1.53
2018-09-08T13:51:12.220Z,1.57
2018-09-08T13:53:40.753Z,1.73
2018-09-08T13:56:09.515Z,1.70
2018-09-08T13:58:38.214Z,1.67
2018-09-08T14:01:06.828Z,1.90
2018-09-08T14:03:35.363Z,2.00
2018-09-08T14:06:04.189Z,1.70
2018-09-08T14:08:33.387Z,2.20
2018-09-08T14:11:01.940Z,2.30
2018-09-08T14:13:30.698Z,1.73
2018-09-08T14:15:59.636Z,2.00
2018-09-08T14:18:28.412Z,1.90
2018-09-08T14:20:57.182Z,1.80
2018-09-08T14:23:28.722Z,2.20
2018-09-08T14:25:58.167Z,1.57
2018-09-08T14:28:27.544Z,2.07
2018-09-08T14:30:56.065Z,1.63
2018-09-08T14:33:25.149Z,2.17
2018-09-08T14:35:57.686Z,1.80
2018-09-08T14:38:26.633Z,2.03
2018-09-08T14:40:56.911Z,1.23
2018-09-08T14:43:26.154Z,1.80
2018-09-08T14:45:54.688Z,1.73
2018-09-08T14:48:24.065Z,1.77
2018-09-08T14:50:52.709Z,1.70
2018-09-08T14:53:21.247Z,1.57
2018-09-08T14:55:49.834Z,1.47
2018-09-08T14:58:18.404Z,2.03
2018-09-08T15:00:47.024Z,2.50
2018-09-08T15:03:17.371Z,1.73
2018-09-08T15:05:46.798Z,2.40
2018-09-08T15:08:15.320Z,1.63
2018-09-08T15:10:43.936Z,1.77
2018-09-08T15:13:13.088Z,1.80
2018-09-08T15:15:41.665Z,1.80
2018-09-08T15:18:10.375Z,1.60
2018-09-08T15:20:39.008Z,1.93
2018-09-08T15:23:07.546Z,1.73
2018-09-08T15:25:36.254Z,2.10
2018-09-08T15:28:04.836Z,2.70
2018-09-08T15:30:33.395Z,1.83
2018-09-08T15:33:03.633Z,1.90
2018-09-08T15:35:32.144Z,1.70
2018-09-08T15:38:00.667Z,1.70
2018-09-08T15:40:29.306Z,1.60
2018-09-08T15:42:58.085Z,1.50
2018-09-08T15:45:27.152Z,3.27
2018-09-08T15:47:55.896Z,2.60
2018-09-08T15:50:24.449Z,1.90
2018-09-08T15:52:54.321Z,2.00
2018-09-08T15:55:22.900Z,2.27
2018-09-08T15:57:52.999Z,1.67
2018-09-08T16:00:37.769Z,2.00
2018-09-08T16:03:09.518Z,2.40
2018-09-08T16:06:04.327Z,2.20
2018-09-08T16:08:33.890Z,2.00
2018-09-08T16:11:02.668Z,2.17
2018-09-08T16:13:31.355Z,2.67
2018-09-08T16:16:00.112Z,1.50
2018-09-08T16:18:28.693Z,1.73
2018-09-08T16:20:58.108Z,2.10
2018-09-08T16:23:26.745Z,1.80
2018-09-08T16:25:55.564Z,1.67
2018-09-08T16:28:24.152Z,1.80
2018-09-08T16:30:52.887Z,1.90
2018-09-08T16:33:21.592Z,2.10
2018-09-08T16:35:50.907Z,1.73
2018-09-08T16:38:19.786Z,2.03
2018-09-08T16:40:49.029Z,1.70
2018-09-08T16:43:17.639Z,1.83
2018-09-08T16:45:46.243Z,1.93
2018-09-08T16:48:14.856Z,1.50
2018-09-08T16:50:43.354Z,1.77
2018-09-08T16:53:12.356Z,1.80
2018-09-08T16:55:40.940Z,1.80
2018-09-08T16:58:10.560Z,1.70
2018-09-08T17:00:39.147Z,1.93
2018-09-08T17:03:07.777Z,1.33
2018-09-08T17:05:36.331Z,1.40
2018-09-08T17:08:05.167Z,1.37
2018-09-08T17:10:33.667Z,1.37
2018-09-08T17:13:02.272Z,1.50
2018-09-08T17:15:30.900Z,1.37
2018-09-08T17:17:59.796Z,1.30
2018-09-08T17:20:28.744Z,1.20
2018-09-08T17:22:57.535Z,1.57
2018-09-08T17:25:26.032Z,1.23
2018-09-08T17:27:54.527Z,1.43
2018-09-08T17:30:23.081Z,1.50
2018-09-08T17:32:51.792Z,6.03
2018-09-08T17:35:20.945Z,8.40
2018-09-08T17:37:49.874Z,4.63
2018-09-08T17:40:18.879Z,11.53
2018-09-08T17:42:47.549Z,11.80
2018-09-08T17:45:16.197Z,12.93
2018-09-08T17:47:44.798Z,13.50
2018-09-08T17:50:13.329Z,12.60
2018-09-08T17:52:42.103Z,8.97
2018-09-08T17:55:10.840Z,12.30
2018-09-08T17:57:39.863Z,10.63
2018-09-08T18:00:08.511Z,10.60
2018-09-08T18:05:49.377Z,9.30
2018-09-08T18:08:19.336Z,8.60
2018-09-08T18:10:51.587Z,8.43
2018-09-08T18:13:24.794Z,8.23
2018-09-08T18:15:53.364Z,7.87
2018-09-08T18:18:22.382Z,7.93
2018-09-08T18:20:51.313Z,6.60
2018-09-08T18:23:19.917Z,7.33
2018-09-08T18:25:48.583Z,6.97
2018-09-08T18:28:17.097Z,6.10
2018-09-08T18:30:45.758Z,5.93
2018-09-08T18:33:14.390Z,5.70
2018-09-08T18:35:42.942Z,6.07
2018-09-08T18:38:11.519Z,5.50
2018-09-08T18:40:40.063Z,5.10
2018-09-08T18:43:08.617Z,5.33
2018-09-08T18:45:37.207Z,5.00
2018-09-08T18:48:05.919Z,4.93
2018-09-08T18:50:34.567Z,3.43
2018-09-08T18:53:04.694Z,4.77
2018-09-08T18:55:33.401Z,4.33
2018-09-08T18:58:01.938Z,3.47
2018-09-08T19:00:31.042Z,3.87
2018-09-08T19:02:59.740Z,4.47
2018-09-08T19:05:28.296Z,3.93
2018-09-08T19:07:57.209Z,4.00
2018-09-08T19:10:25.755Z,1.93
2018-09-08T19:12:54.267Z,3.00
2018-09-08T19:15:22.818Z,3.93
2018-09-08T19:17:51.530Z,3.33
2018-09-08T19:20:25.680Z,3.30
2018-09-08T19:22:54.264Z,2.97
2018-09-08T19:25:22.844Z,3.43
2018-09-08T19:27:51.371Z,3.30
2018-09-08T19:30:19.894Z,3.40
2018-09-08T19:32:48.640Z,2.90
2018-09-08T19:35:22.606Z,3.20
2018-09-08T19:37:51.166Z,3.00
2018-09-08T19:40:25.244Z,2.20
2018-09-08T19:42:53.962Z,2.30
2018-09-08T19:45:23.496Z,2.43
2018-09-08T19:47:57.549Z,2.50
2018-09-08T19:50:26.122Z,2.33
2018-09-08T19:53:00.162Z,2.10
2018-09-08T19:55:28.706Z,2.67
2018-09-08T19:58:02.699Z,2.27
2018-09-08T20:00:31.329Z,2.33
2018-09-08T20:03:09.621Z,2.15
2018-09-08T20:05:40.070Z,2.30
2018-09-08T20:08:08.838Z,2.20
2018-09-08T20:10:37.801Z,2.33
2018-09-08T20:13:06.562Z,2.60
2018-09-08T20:15:35.534Z,2.27
2018-09-08T20:18:04.237Z,2.60
2018-09-08T20:20:32.919Z,2.60
2018-09-08T20:23:01.490Z,2.03
2018-09-08T20:25:29.999Z,2.13
2018-09-08T20:27:58.629Z,2.13
2018-09-08T20:30:27.141Z,1.93
2018-09-08T20:32:55.653Z,1.97
2018-09-08T20:35:24.131Z,2.03
2018-09-08T20:37:52.725Z,1.90
2018-09-08T20:40:21.414Z,1.80
2018-09-08T20:42:49.948Z,2.13
2018-09-08T20:45:18.463Z,2.20
2018-09-08T20:47:47.521Z,1.97
2018-09-08T20:50:15.972Z,1.70
2018-09-08T20:52:44.497Z,1.70
2018-09-08T20:55:13.078Z,3.03
2018-09-08T20:57:41.605Z,1.40
2018-09-08T21:00:10.180Z,1.87
2018-09-08T21:02:38.743Z,2.03
2018-09-08T21:05:07.270Z,2.07
2018-09-08T21:07:35.811Z,1.70
2018-09-08T21:10:04.327Z,2.03
2018-09-08T21:12:33.063Z,2.27
2018-09-08T21:15:01.576Z,1.60
2018-09-08T21:17:30.065Z,1.90
2018-09-08T21:19:58.636Z,1.97
2018-09-08T21:22:27.253Z,1.60
2018-09-08T21:24:56.134Z,1.60
2018-09-08T21:27:24.868Z,1.53
2018-09-08T21:29:53.659Z,1.57
2018-09-08T21:32:22.146Z,1.80
2018-09-08T21:34:50.886Z,1.93
2018-09-08T21:37:19.599Z,1.57
2018-09-08T21:39:48.281Z,1.60
2018-09-08T21:42:16.971Z,1.73
2018-09-08T21:44:45.786Z,1.87
2018-09-08T21:47:14.698Z,2.23
2018-09-08T21:49:43.485Z,1.97
2018-09-08T21:52:12.204Z,1.50
2018-09-08T21:54:40.982Z,1.60
2018-09-08T21:57:09.667Z,1.60
2018-09-08T21:59:38.462Z,1.40
2018-09-08T22:02:06.992Z,1.40
2018-09-08T22:04:35.519Z,1.60
2018-09-08T22:07:04.339Z,1.20
2018-09-08T22:09:33.573Z,1.33
2018-09-08T22:12:02.080Z,1.27
2018-09-08T22:14:30.597Z,1.60
2018-09-08T22:16:59.147Z,1.50
2018-09-08T22:19:28.488Z,1.30
2018-09-08T22:21:56.994Z,1.43
2018-09-08T22:24:26.445Z,1.70
2018-09-08T22:26:54.955Z,1.33
2018-09-08T22:29:23.521Z,1.27
2018-09-08T22:31:55.859Z,1.30
2018-09-08T22:34:24.417Z,1.30
2018-09-08T22:36:53.015Z,1.47
2018-09-08T22:39:21.658Z,1.90
2018-09-08T22:41:50.272Z,1.83
2018-09-08T22:44:18.794Z,1.70
2018-09-08T22:46:47.347Z,1.40
2018-09-08T22:49:16.036Z,2.47
2018-09-08T22:51:45.154Z,1.43
2018-09-08T22:54:13.712Z,1.60
2018-09-08T22:56:42.296Z,1.40
2018-09-08T22:59:10.774Z,1.47
2018-09-08T23:01:39.335Z,1.90
2018-09-08T23:04:07.895Z,1.40
2018-09-08T23:06:36.662Z,1.40
2018-09-08T23:09:05.774Z,1.83
2018-09-08T23:11:34.358Z,1.47
2018-09-08T23:14:02.921Z,1.80
2018-09-08T23:16:31.675Z,1.67
2018-09-08T23:19:00.463Z,1.77
2018-09-08T23:21:28.995Z,1.60
2018-09-08T23:23:57.497Z,1.80
2018-09-08T23:26:26.263Z,1.97
2018-09-08T23:28:55.210Z,1.63
2018-09-08T23:31:23.737Z,3.13
2018-09-08T23:33:52.559Z,1.50
2018-09-08T23:36:21.492Z,1.30
2018-09-08T23:38:50.168Z,1.90
2018-09-08T23:41:18.948Z,1.73
2018-09-08T23:43:47.483Z,1.40
2018-09-08T23:46:16.040Z,1.17
2018-09-08T23:48:44.576Z,2.27
2018-09-08T23:51:13.101Z,1.57
2018-09-08T23:53:41.623Z,2.00
2018-09-08T23:56:10.204Z,1.92
2018-09-08T23:58:38.726Z,2.30
